createdAt,value
2022-09-10T06:40:35.715Z,67.38
2022-09-10T07:11:08.288Z,67.79
2022-09-10T07:56:35.124Z,66.42
2022-09-10T10:10:25.030Z,55.73
2022-09-10T10:39:14.389Z,55.41
2022-09-10T10:58:29.465Z,55.05
2022-09-10T11:00:59.957Z,55.26
2022-09-10T11:03:44.910Z,53.76
2022-09-10T11:06:26.626Z,54.20
2022-09-10T11:09:21.794Z,53.38
2022-09-10T11:12:07.609Z,53.62
2022-09-10T11:15:48.436Z,54.06
2022-09-10T11:53:16.814Z,51.58
2022-09-10T12:02:23.551Z,51.29
2022-09-10T12:45:12.560Z,49.26
2022-09-10T13:05:03.556Z,50.57
2022-09-10T13:07:37.630Z,50.53
2022-09-10T13:10:16.438Z,49.92
2022-09-10T13:12:46.873Z,50.03
2022-09-10T13:15:36.564Z,49.61
2022-09-10T13:44:45.872Z,49.76
2022-09-10T13:47:22.680Z,50.73
2022-09-10T14:22:16.391Z,53.99
2022-09-10T14:24:54.747Z,53.11
2022-09-10T14:27:26.025Z,53.61
2022-09-10T14:30:39.774Z,53.22
2022-09-10T14:33:28.405Z,54.01
2022-09-10T14:36:07.788Z,53.81
2022-09-10T15:56:04.494Z,57.05
2022-09-10T15:58:33.980Z,56.98
2022-09-10T16:01:13.361Z,57.43
2022-09-10T16:03:47.265Z,57.10
2022-09-10T16:06:19.955Z,57.20
2022-09-10T16:08:56.792Z,56.85
2022-09-10T16:11:27.653Z,57.13
2022-09-10T16:14:04.109Z,57.27
2022-09-10T16:16:37.756Z,57.49
2022-09-10T16:19:10.054Z,57.84
2022-09-10T16:25:14.174Z,58.37
2022-09-10T16:27:45.472Z,58.68
2022-09-10T16:30:15.966Z,58.98
2022-09-10T16:32:43.125Z,59.22
2022-09-10T16:35:11.038Z,58.92
2022-09-10T16:37:42.630Z,59.20
2022-09-10T16:40:11.868Z,58.70
2022-09-10T16:42:41.953Z,59.00
2022-09-10T16:53:01.235Z,59.32
2022-09-10T16:58:46.661Z,59.22
2022-09-10T17:01:15.219Z,59.56
2022-09-10T17:03:49.089Z,59.88
2022-09-10T17:06:19.015Z,59.43
2022-09-10T17:08:47.833Z,59.73
2022-09-10T17:11:16.088Z,59.44
2022-09-10T17:15:04.346Z,59.56
2022-09-10T17:20:20.880Z,59.58
2022-09-10T17:22:53.885Z,59.80
2022-09-10T17:25:29.808Z,59.96
2022-09-10T17:28:57.277Z,59.64
2022-09-10T17:31:54.280Z,59.92
2022-09-10T17:34:25.263Z,60.02
2022-09-10T17:36:58.209Z,59.71
2022-09-10T17:42:22.875Z,59.98
2022-09-10T17:52:53.767Z,60.77
2022-09-10T17:59:16.175Z,61.17
2022-09-10T18:01:55.658Z,61.18
2022-09-10T18:04:24.572Z,60.98
2022-09-10T18:10:03.642Z,60.84
2022-09-10T18:12:32.289Z,60.98
2022-09-10T18:15:03.592Z,60.95
2022-09-10T18:24:47.249Z,61.10
2022-09-10T18:27:23.876Z,61.01
2022-09-10T18:30:13.040Z,61.51
2022-09-10T18:32:46.924Z,61.13
2022-09-10T18:35:18.277Z,61.39
2022-09-10T18:37:50.203Z,61.39
2022-09-10T18:40:19.371Z,61.46
2022-09-10T18:42:48.051Z,61.27
2022-09-10T18:45:15.288Z,61.59
2022-09-10T18:47:46.785Z,61.27
2022-09-10T18:50:14.262Z,61.37
2022-09-10T18:52:46.107Z,61.42
2022-09-10T18:55:16.224Z,61.33
2022-09-10T18:57:43.494Z,61.36
2022-09-10T19:00:13.767Z,61.43
2022-09-10T19:05:40.249Z,61.50
2022-09-10T19:08:07.862Z,61.74
2022-09-10T19:10:34.923Z,61.57
2022-09-10T19:13:01.935Z,61.47
2022-09-10T19:15:28.997Z,61.57
2022-09-10T19:17:56.190Z,61.65
2022-09-10T19:20:26.693Z,61.96
2022-09-10T19:22:53.935Z,61.76
2022-09-10T19:25:23.002Z,61.78
2022-09-10T19:27:51.412Z,61.79
2022-09-10T19:30:18.594Z,62.05
2022-09-10T19:32:45.703Z,62.03
2022-09-10T19:35:13.652Z,62.11
2022-09-10T19:37:41.568Z,62.29
2022-09-10T19:40:11.010Z,62.26
2022-09-10T19:42:38.171Z,61.91
2022-09-10T19:45:09.940Z,62.45
2022-09-10T19:47:40.536Z,62.27
2022-09-10T19:50:10.347Z,62.23
2022-09-10T19:52:39.213Z,62.45
2022-09-10T19:55:07.553Z,62.19
2022-09-10T19:57:34.938Z,62.47
2022-09-10T20:00:03.982Z,62.59
2022-09-10T20:05:28.914Z,62.68
2022-09-10T20:07:56.405Z,62.36
2022-09-10T20:10:27.701Z,62.76
2022-09-10T20:12:58.942Z,62.77
2022-09-10T20:15:28.113Z,62.97
2022-09-10T20:17:55.571Z,62.95
2022-09-10T20:20:25.317Z,62.82
2022-09-10T20:23:00.674Z,62.78
2022-09-10T20:25:32.020Z,63.09
2022-09-10T20:28:01.956Z,63.11
2022-09-10T20:30:30.557Z,63.17
2022-09-10T20:32:59.713Z,63.20
2022-09-10T20:35:30.428Z,63.01
2022-09-10T20:38:00.665Z,62.96
2022-09-10T20:40:34.550Z,63.00
2022-09-10T20:43:07.947Z,63.37
2022-09-10T20:45:38.081Z,63.22
2022-09-10T20:48:09.615Z,63.42
2022-09-10T20:50:36.838Z,63.23
2022-09-10T20:53:04.043Z,63.37
2022-09-10T20:55:31.743Z,63.39
2022-09-10T20:57:58.994Z,63.84
2022-09-10T21:00:26.984Z,63.66
2022-09-10T21:02:56.758Z,63.40
2022-09-10T21:05:27.054Z,63.83
2022-09-10T21:07:55.215Z,63.76
2022-09-10T21:10:23.871Z,63.56
2022-09-10T21:12:53.446Z,64.00
2022-09-10T21:15:20.702Z,64.27
2022-09-10T21:17:49.424Z,63.85
2022-09-10T21:20:16.656Z,64.40
2022-09-10T21:22:44.344Z,64.20
2022-09-10T21:25:11.472Z,64.36
2022-09-10T21:27:38.633Z,64.19
2022-09-10T21:30:07.275Z,64.26
2022-09-10T21:32:34.755Z,64.46
2022-09-10T21:35:02.281Z,64.66
2022-09-10T21:37:32.987Z,64.74
2022-09-10T21:40:10.750Z,64.51
2022-09-10T21:42:38.311Z,64.53
2022-09-10T21:45:09.718Z,64.79
2022-09-10T21:47:41.091Z,64.60
2022-09-10T21:50:09.322Z,64.99
2022-09-10T21:52:37.831Z,64.70
2022-09-10T21:55:05.501Z,65.06
2022-09-10T21:57:32.626Z,65.20
2022-09-10T22:00:00.662Z,65.03
2022-09-10T22:02:27.931Z,65.22
2022-09-10T22:04:55.149Z,65.17
2022-09-10T22:07:23.753Z,65.08
2022-09-10T22:09:51.511Z,65.16
2022-09-10T22:12:19.051Z,65.25
2022-09-10T22:14:49.260Z,65.40
2022-09-10T22:17:19.822Z,65.06
2022-09-10T22:19:48.155Z,65.62
2022-09-10T22:22:15.282Z,65.56
2022-09-10T22:24:42.465Z,65.66
2022-09-10T22:27:09.679Z,65.58
2022-09-10T22:29:38.453Z,65.29
2022-09-10T22:32:06.411Z,65.60
2022-09-10T22:34:33.790Z,65.60
2022-09-10T22:37:03.374Z,65.52
2022-09-10T22:39:32.277Z,65.95
2022-09-10T22:42:00.148Z,65.56
2022-09-10T22:44:27.682Z,65.62
2022-09-10T22:46:56.385Z,65.79
2022-09-10T22:49:29.460Z,65.68
2022-09-10T23:02:59.816Z,66.21
2022-09-10T23:05:35.932Z,66.23
2022-09-10T23:08:16.294Z,65.81
2022-09-10T23:13:58.736Z,66.27
2022-09-10T23:16:54.751Z,66.19
2022-09-10T23:19:27.278Z,66.19
2022-09-10T23:22:10.837Z,66.05
2022-09-10T23:24:44.484Z,66.16
2022-09-10T23:27:18.894Z,66.10
2022-09-10T23:29:48.208Z,66.47
2022-09-10T23:32:21.329Z,66.06
2022-09-10T23:34:50.881Z,66.43
2022-09-10T23:37:37.565Z,66.22
2022-09-10T23:40:41.321Z,66.54
2022-09-10T23:43:14.773Z,66.37
2022-09-10T23:45:56.140Z,66.62
2022-09-10T23:49:00.176Z,66.52
2022-09-10T23:52:03.581Z,66.24
2022-09-10T23:54:36.809Z,66.65
2022-09-10T23:57:14.058Z,66.45
